Time;durP1;ratioP1;P1;durP2;ratioP2;P2;SDS_P1;SDS_P2;PMS_P1;PMS_P2;Temp;Humidity;BMP_temperature;BMP_pressure;BME280_temperature;BME280_humidity;BME280_pressure;Samples;Min_cycle;Max_cycle;Signal;HPM_P1;HPM_P2
2022/01/24 00:08:43;;;;;;;11.68;8.15;;;;;;;2.82;83.72;102854.78;4984531;28;20061;-85
2022/01/24 00:17:17;;;;;;;12.45;8.30;;;;;;;2.79;84.24;102834.22;4984380;28;20057;-84
2022/01/24 00:28:21;;;;;;;10.82;7.57;;;;;;;2.87;84.46;102857.19;4984983;28;20123;-83
2022/01/24 00:30:48;;;;;;;10.63;7.22;;;;;;;2.88;84.56;102862.31;4985598;28;20054;-84
2022/01/24 00:33:18;;;;;;;11.13;7.68;;;;;;;2.91;84.28;102874.28;4987252;28;20078;-84
2022/01/24 00:35:56;;;;;;;8.63;7.00;;;;;;;2.92;84.84;102870.81;4989213;28;20046;-83
2022/01/24 00:38:23;;;;;;;10.40;7.32;;;;;;;2.94;84.57;102863.84;4992662;28;20055;-85
2022/01/24 00:40:55;;;;;;;11.73;7.82;;;;;;;2.92;84.44;102858.72;4997200;28;20046;-87
2022/01/24 00:43:29;;;;;;;10.40;8.27;;;;;;;2.80;83.95;102841.06;4997893;28;20078;-87
2022/01/24 00:46:02;;;;;;;17.85;11.70;;;;;;;2.77;84.65;102825.66;4985302;28;20054;-84
2022/01/24 00:49:01;;;;;;;20.25;16.98;;;;;;;2.70;84.55;102831.09;4989860;28;20085;-82
2022/01/24 00:57:10;;;;;;;12.50;9.00;;;;;;;2.89;84.14;102861.41;4991558;28;20054;-82
2022/01/24 00:59:45;;;;;;;12.13;8.52;;;;;;;2.84;84.93;102852.97;4990831;28;20050;-81
2022/01/24 01:02:14;;;;;;;9.65;7.15;;;;;;;2.64;84.56;102826.97;4990873;28;20066;-84
2022/01/24 01:05:13;;;;;;;10.68;7.05;;;;;;;2.55;85.22;102829.84;4989241;28;20074;-84
2022/01/24 01:07:57;;;;;;;9.55;7.65;;;;;;;2.75;85.03;102865.38;4981651;28;20055;-82
2022/01/24 01:56:26;;;;;;;11.35;7.72;;;;;;;2.04;87.29;102820.28;5105319;27;1302164;-84
2022/01/24 01:58:52;;;;;;;9.77;7.50;;;;;;;2.10;87.37;102838.19;5135029;28;20078;-84
2022/01/24 02:01:19;;;;;;;9.48;7.22;;;;;;;2.12;86.94;102830.38;5135298;28;20110;-84
2022/01/24 02:03:46;;;;;;;10.40;7.88;;;;;;;2.23;86.96;102852.41;5134300;27;20043;-85
2022/01/24 02:06:13;;;;;;;12.45;7.82;;;;;;;1.95;87.71;102812.81;5135395;27;20047;-86
2022/01/24 02:08:42;;;;;;;9.70;8.05;;;;;;;2.11;87.62;102849.34;5131977;27;20075;-86
2022/01/24 02:11:14;;;;;;;9.93;7.53;;;;;;;2.06;88.07;102839.16;5131492;27;20136;-86
2022/01/24 02:13:43;;;;;;;10.40;7.82;;;;;;;1.98;87.79;102817.91;5132391;27;20054;-85
2022/01/24 02:16:17;;;;;;;9.07;7.53;;;;;;;2.03;87.61;102817.75;5135278;27;20048;-85
2022/01/24 02:18:51;;;;;;;10.52;7.57;;;;;;;2.15;86.90;102833.72;5139038;27;20047;-85
2022/01/24 02:21:40;;;;;;;13.57;7.82;;;;;;;2.19;87.41;102827.56;5137778;27;20051;-85
2022/01/24 02:24:07;;;;;;;11.68;7.90;;;;;;;2.12;87.33;102822.63;5139070;27;20062;-85
2022/01/24 02:26:33;;;;;;;11.02;7.40;;;;;;;2.15;87.49;102825.97;5137976;27;20109;-84
2022/01/24 02:29:07;;;;;;;11.00;7.38;;;;;;;2.18;87.61;102825.88;5142667;27;20054;-84
2022/01/24 02:31:47;;;;;;;10.02;7.10;;;;;;;2.16;86.96;102821.66;5137804;27;20039;-83
2022/01/24 02:34:27;;;;;;;9.13;6.72;;;;;;;2.10;87.32;102819.25;5137816;27;20515;-83
2022/01/24 02:36:58;;;;;;;13.93;8.20;;;;;;;2.08;87.07;102802.97;5140549;28;20047;-83
2022/01/24 02:50:35;;;;;;;10.00;6.65;;;;;;;2.26;86.56;102807.56;5143778;28;20058;-83
2022/01/24 02:53:03;;;;;;;8.90;6.93;;;;;;;2.11;86.66;102793.38;5139344;27;20085;-84
2022/01/24 02:55:30;;;;;;;9.60;6.90;;;;;;;2.20;87.25;102818.09;5137984;27;20057;-84
2022/01/24 02:57:57;;;;;;;9.27;7.50;;;;;;;2.16;87.12;102804.41;5137721;27;20459;-84
2022/01/24 03:00:23;;;;;;;9.30;7.05;;;;;;;2.26;86.92;102802.38;5138065;27;20075;-84
2022/01/24 03:02:50;;;;;;;9.75;6.95;;;;;;;2.20;87.37;102808.59;5138332;27;20048;-84
2022/01/24 03:05:17;;;;;;;9.00;6.90;;;;;;;2.14;87.01;102798.44;5139890;27;20062;-84
2022/01/24 03:07:45;;;;;;;10.25;7.38;;;;;;;2.27;86.85;102802.34;5136159;27;20071;-83
2022/01/24 03:10:24;;;;;;;9.68;6.68;;;;;;;2.30;86.65;102791.91;5122865;28;20104;-84
2022/01/24 03:12:59;;;;;;;13.32;7.00;;;;;;;2.35;86.54;102783.16;5122871;28;20047;-83
2022/01/24 03:15:26;;;;;;;11.55;6.95;;;;;;;2.29;86.86;102787.63;5121986;28;20150;-85
2022/01/24 03:17:55;;;;;;;9.13;6.80;;;;;;;2.21;86.96;102788.78;5122060;28;20104;-83
2022/01/24 03:20:21;;;;;;;9.23;7.05;;;;;;;2.16;87.65;102786.34;5124564;28;20044;-83
2022/01/24 03:22:48;;;;;;;8.77;6.95;;;;;;;2.10;87.96;102776.19;5123622;28;20159;-84
2022/01/24 03:25:16;;;;;;;9.68;7.18;;;;;;;2.06;88.03;102781.50;5119896;28;20131;-83
2022/01/24 03:27:42;;;;;;;8.75;6.90;;;;;;;2.04;88.76;102783.28;5120067;28;20187;-83
2022/01/24 03:30:10;;;;;;;9.75;7.20;;;;;;;1.98;88.82;102777.44;5128100;28;20082;-84
2022/01/24 03:32:36;;;;;;;9.05;7.03;;;;;;;2.03;89.21;102785.03;5126780;28;20082;-84
2022/01/24 03:35:07;;;;;;;10.52;7.00;;;;;;;2.05;89.23;102784.97;5126975;28;20078;-83
2022/01/24 03:37:34;;;;;;;11.02;7.68;;;;;;;2.10;89.01;102781.38;5124734;28;20154;-84
2022/01/24 03:40:01;;;;;;;10.10;8.00;;;;;;;2.07;88.48;102781.47;5118728;28;20071;-80
2022/01/24 03:42:31;;;;;;;10.57;7.93;;;;;;;2.08;88.49;102782.31;5126251;28;20086;-84
2022/01/24 03:45:06;;;;;;;8.57;6.93;;;;;;;2.14;88.79;102798.44;5120930;28;20047;-85
2022/01/24 03:47:56;;;;;;;8.55;7.20;;;;;;;1.99;89.25;102768.78;5118937;28;20498;-84
2022/01/24 03:50:23;;;;;;;8.95;7.40;;;;;;;2.04;88.38;102765.22;5120100;28;20142;-84
2022/01/24 03:52:51;;;;;;;9.93;7.05;;;;;;;2.13;88.73;102790.75;5123619;28;20097;-83
2022/01/24 03:55:17;;;;;;;9.85;7.10;;;;;;;2.21;88.07;102789.63;5123915;28;20047;-83
2022/01/24 03:57:45;;;;;;;10.15;7.43;;;;;;;2.28;88.63;102793.69;5126351;28;20055;-83
2022/01/24 04:00:13;;;;;;;9.35;7.35;;;;;;;2.32;88.68;102795.28;5128452;28;20134;-83
2022/01/24 04:02:40;;;;;;;9.25;7.38;;;;;;;2.33;88.02;102799.56;5127295;28;20104;-83
2022/01/24 04:05:07;;;;;;;9.30;7.20;;;;;;;2.44;87.22;102801.78;5124474;27;20070;-83
2022/01/24 04:07:34;;;;;;;10.13;7.25;;;;;;;2.49;87.38;102788.69;5128069;28;20474;-85
2022/01/24 04:10:05;;;;;;;11.90;6.82;;;;;;;2.53;86.95;102805.78;5128857;28;20149;-85
2022/01/24 04:12:32;;;;;;;8.63;7.03;;;;;;;2.61;86.82;102803.81;5129854;28;20055;-85
2022/01/24 04:15:11;;;;;;;10.27;7.35;;;;;;;2.59;87.05;102800.41;5129523;28;20059;-86
2022/01/24 04:17:42;;;;;;;8.15;6.75;;;;;;;2.59;86.77;102785.75;5130262;28;20059;-86
2022/01/24 04:22:56;;;;;;;9.40;7.10;;;;;;;2.62;87.34;102798.56;5130073;28;20571;-85
2022/01/24 04:25:23;;;;;;;10.15;7.53;;;;;;;2.69;87.59;102788.03;5128633;28;20051;-85
2022/01/24 04:27:54;;;;;;;8.50;6.93;;;;;;;2.66;88.35;102796.75;5126442;28;20056;-82
2022/01/24 04:30:23;;;;;;;10.95;7.15;;;;;;;2.67;88.25;102803.59;5122397;28;20082;-83
2022/01/24 04:32:50;;;;;;;13.60;7.50;;;;;;;2.63;88.25;102791.66;5121986;28;20048;-84
2022/01/24 04:35:23;;;;;;;9.02;7.18;;;;;;;2.58;88.41;102783.22;5132332;28;20045;-86
2022/01/24 04:38:01;;;;;;;;;;;;;;;;;;;;;
2022/01/24 04:40:34;;;;;;;9.48;7.20;;;;;;;2.55;88.28;102767.81;5119907;28;20059;-86
2022/01/24 04:43:27;;;;;;;11.50;7.22;;;;;;;2.50;88.24;102772.28;5117447;28;20043;-85
2022/01/24 04:46:42;;;;;;;8.70;6.90;;;;;;;2.65;88.36;102784.72;5116762;27;20040;-86
2022/01/24 04:55:51;;;;;;;10.38;7.15;;;;;;;2.73;88.21;102793.03;5116159;28;20048;-87
2022/01/24 04:58:30;;;;;;;9.05;7.50;;;;;;;2.66;88.52;102776.06;5116313;28;20143;-86
2022/01/24 05:01:08;;;;;;;9.13;7.00;;;;;;;2.77;88.94;102789.47;5116266;28;20053;-86
2022/01/24 05:03:35;;;;;;;9.80;7.50;;;;;;;2.83;88.16;102797.00;5115064;28;20128;-84
2022/01/24 05:06:02;;;;;;;9.98;7.38;;;;;;;2.73;88.36;102781.88;5115301;28;20043;-89
2022/01/24 05:08:47;;;;;;;12.00;8.38;;;;;;;2.84;88.30;102805.56;5114604;28;20440;-85
2022/01/24 05:11:34;;;;;;;10.80;7.72;;;;;;;2.79;87.64;102792.84;5114610;28;20065;-87
2022/01/24 05:29:57;;;;;;;10.52;7.53;;;;;;;2.17;89.36;102767.38;5117691;27;20063;-84
2022/01/24 05:32:25;;;;;;;9.65;7.30;;;;;;;2.20;89.67;102785.34;5125694;28;20419;-84
2022/01/24 05:34:54;;;;;;;10.57;8.20;;;;;;;2.01;90.10;102776.50;5123217;28;20048;-84
2022/01/24 05:37:21;;;;;;;9.82;8.18;;;;;;;1.93;89.59;102768.13;5120089;28;20093;-85
2022/01/24 05:39:50;;;;;;;10.23;8.07;;;;;;;2.07;90.34;102791.78;5118592;28;20101;-84
2022/01/24 05:42:21;;;;;;;10.18;7.93;;;;;;;2.00;90.30;102788.56;5118225;28;20142;-84
2022/01/24 05:44:54;;;;;;;10.85;7.65;;;;;;;2.05;90.21;102805.66;5115747;28;20051;-81
2022/01/24 05:50:38;;;;;;;11.43;7.95;;;;;;;1.71;91.17;102783.47;5118241;28;20051;-85
2022/01/24 05:53:10;;;;;;;13.38;7.82;;;;;;;1.61;91.32;102775.16;5120034;28;20067;-84
2022/01/24 05:55:37;;;;;;;9.30;7.97;;;;;;;1.49;91.80;102767.75;5118574;28;20086;-84
2022/01/24 05:58:04;;;;;;;9.90;8.23;;;;;;;1.47;92.21;102785.03;5117656;28;20044;-85
2022/01/24 06:00:34;;;;;;;11.70;8.65;;;;;;;1.53;92.82;102810.66;5118899;28;20050;-85
2022/01/24 06:03:00;;;;;;;12.23;8.45;;;;;;;1.36;92.61;102792.25;5119567;28;20055;-87
2022/01/24 06:05:27;;;;;;;11.32;8.32;;;;;;;1.35;92.99;102807.78;5120080;28;20058;-87
2022/01/24 06:07:57;;;;;;;10.40;8.27;;;;;;;1.33;93.60;102810.41;5120725;28;20057;-84
2022/01/24 06:10:24;;;;;;;10.90;8.05;;;;;;;1.28;93.42;102807.09;5122381;28;20077;-85
2022/01/24 06:12:51;;;;;;;10.35;8.65;;;;;;;1.22;93.65;102817.59;5125335;28;20043;-84
2022/01/24 06:15:18;;;;;;;10.45;8.45;;;;;;;0.99;93.61;102787.25;5118573;28;20044;-85
2022/01/24 06:17:45;;;;;;;10.70;8.40;;;;;;;0.89;94.04;102794.44;5119650;28;20120;-85
2022/01/24 06:20:12;;;;;;;10.40;8.50;;;;;;;0.87;93.92;102801.34;5122446;28;20071;-86
2022/01/24 06:22:45;;;;;;;10.50;7.95;;;;;;;0.86;94.11;102799.66;5122879;28;20051;-84
2022/01/24 06:25:20;;;;;;;11.05;8.15;;;;;;;0.93;94.36;102819.25;5123004;28;20099;-85
2022/01/24 06:27:46;;;;;;;9.80;7.65;;;;;;;0.88;94.06;102818.50;5123776;28;20090;-86
2022/01/24 06:30:13;;;;;;;11.80;8.65;;;;;;;0.80;94.27;102833.31;5127188;28;20046;-87
2022/01/24 06:32:40;;;;;;;11.90;8.32;;;;;;;0.50;94.26;102798.00;5124173;28;20122;-85
2022/01/24 06:35:09;;;;;;;11.88;8.98;;;;;;;0.57;94.42;102821.00;5123021;28;20090;-86
2022/01/24 06:37:36;;;;;;;14.43;9.23;;;;;;;0.58;94.75;102827.00;5122984;28;20425;-86
2022/01/24 06:40:03;;;;;;;15.23;9.43;;;;;;;0.54;94.70;102830.53;5121993;28;20081;-85
2022/01/24 06:42:31;;;;;;;11.80;8.77;;;;;;;0.43;94.97;102815.38;5126306;28;20051;-85
2022/01/24 06:44:58;;;;;;;11.98;9.18;;;;;;;0.46;95.27;102837.63;5128167;28;20048;-83
2022/01/24 06:47:25;;;;;;;14.95;10.05;;;;;;;0.45;95.08;102844.53;5123784;28;20048;-82
2022/01/24 06:49:52;;;;;;;13.38;9.13;;;;;;;0.45;95.40;102846.25;5124298;28;20051;-83
2022/01/24 06:52:20;;;;;;;13.05;9.45;;;;;;;0.48;95.33;102851.31;5124769;28;20106;-85
2022/01/24 06:54:47;;;;;;;15.68;9.38;;;;;;;0.45;95.53;102847.09;5129914;28;20072;-85
2022/01/24 06:57:17;;;;;;;16.33;9.80;;;;;;;0.48;95.80;102844.41;5132554;28;20058;-81
2022/01/24 06:59:47;;;;;;;14.65;10.43;;;;;;;0.51;95.26;102839.19;5131226;28;20083;-83
2022/01/24 07:02:20;;;;;;;13.77;9.90;;;;;;;0.50;95.55;102834.06;5135087;28;20066;-83
2022/01/24 07:04:46;;;;;;;14.70;10.55;;;;;;;0.51;95.62;102810.84;5135099;28;20032;-80
2022/01/24 07:07:14;;;;;;;15.88;11.95;;;;;;;0.58;95.01;102827.00;5128574;27;20129;-84
2022/01/24 07:09:44;;;;;;;18.85;13.15;;;;;;;0.55;95.17;102815.06;5130932;28;20077;-84
2022/01/24 07:12:10;;;;;;;14.07;10.82;;;;;;;0.59;94.94;102823.56;5129992;28;20055;-84
2022/01/24 07:14:38;;;;;;;16.80;11.00;;;;;;;0.61;95.34;102834.66;5128323;28;20086;-83
2022/01/24 07:17:15;;;;;;;22.27;13.90;;;;;;;0.57;95.27;102820.16;5129752;28;20035;-84
2022/01/24 07:19:41;;;;;;;21.52;13.75;;;;;;;0.60;95.25;102814.94;5138639;28;20057;-85
2022/01/24 07:22:08;;;;;;;23.50;14.68;;;;;;;0.54;95.34;102826.25;5138667;28;20039;-87
2022/01/24 07:24:36;;;;;;;28.75;19.25;;;;;;;0.55;95.36;102827.09;5138801;28;20031;-85
2022/01/24 07:27:04;;;;;;;17.63;12.40;;;;;;;0.48;95.06;102823.81;5138671;28;20097;-85
2022/01/24 07:29:37;;;;;;;20.20;13.68;;;;;;;0.48;95.31;102831.53;5138103;28;20040;-85
2022/01/24 07:32:04;;;;;;;24.83;16.58;;;;;;;0.36;95.52;102834.44;5135805;28;20112;-85
2022/01/24 07:34:32;;;;;;;18.92;13.60;;;;;;;0.48;95.21;102841.00;5132712;28;20356;-85
2022/01/24 07:37:02;;;;;;;17.38;13.30;;;;;;;0.44;95.18;102839.41;5136927;28;20063;-84
2022/01/24 07:39:31;;;;;;;19.88;14.02;;;;;;;0.38;95.11;102847.28;5136955;28;20036;-84
2022/01/24 07:42:03;;;;;;;20.65;14.35;;;;;;;0.33;95.60;102843.06;5136134;28;20048;-84
2022/01/24 07:44:32;;;;;;;22.97;15.33;;;;;;;0.29;95.38;102836.31;5132876;28;20059;-84
2022/01/24 07:46:59;;;;;;;19.98;14.40;;;;;;;0.32;95.37;102825.94;5118181;28;20086;-85
2022/01/24 07:49:37;;;;;;;23.73;13.57;;;;;;;0.28;95.26;102829.47;5113025;28;20047;-84
2022/01/24 07:52:16;;;;;;;22.23;15.68;;;;;;;0.36;95.58;102833.59;5129453;28;20135;-84
2022/01/24 07:54:45;;;;;;;23.77;14.25;;;;;;;0.51;95.60;102848.66;5134199;22;20329;-80
2022/01/24 07:57:12;;;;;;;20.55;14.77;;;;;;;0.44;95.36;102850.56;5053143;28;20048;-78
2022/01/24 07:59:41;;;;;;;20.85;14.82;;;;;;;0.52;95.14;102848.63;5053347;28;20107;-79
2022/01/24 08:02:08;;;;;;;21.40;14.00;;;;;;;0.45;95.13;102835.94;5051927;28;20571;-79
2022/01/24 08:04:53;;;;;;;27.30;18.73;;;;;;;0.65;95.90;102870.63;5052781;28;20049;-80
2022/01/24 08:07:25;;;;;;;22.40;16.10;;;;;;;0.64;95.79;102832.00;5055500;28;20072;-80
2022/01/24 08:09:52;;;;;;;24.58;14.95;;;;;;;1.02;96.23;102861.94;5055366;28;20475;-80
2022/01/24 08:12:19;;;;;;;22.02;15.00;;;;;;;1.17;95.88;102868.44;5055785;28;20111;-80
2022/01/24 08:14:46;;;;;;;19.45;14.50;;;;;;;1.44;95.80;102867.66;5056868;28;20139;-80
2022/01/24 08:17:14;;;;;;;23.45;15.38;;;;;;;1.71;95.46;102865.22;5056228;28;20049;-80
2022/01/24 08:19:40;;;;;;;21.67;13.80;;;;;;;1.69;94.53;102867.84;5055753;28;20451;-80
2022/01/24 08:22:07;;;;;;;18.70;13.05;;;;;;;1.61;93.59;102864.63;5055517;28;20349;-80
2022/01/24 08:24:35;;;;;;;17.13;13.00;;;;;;;1.80;93.84;102867.53;5057825;28;20055;-79
2022/01/24 08:27:02;;;;;;;17.08;12.40;;;;;;;2.20;93.91;102862.84;5056516;28;20127;-81
2022/01/24 08:29:28;;;;;;;20.00;12.45;;;;;;;2.61;92.74;102845.16;5056144;28;20132;-81
2022/01/24 08:31:55;;;;;;;19.30;11.88;;;;;;;3.06;90.68;102852.25;5058412;28;20045;-82
2022/01/24 08:34:21;;;;;;;19.98;11.88;;;;;;;3.45;89.54;102850.81;5061724;28;20088;-82
2022/01/24 08:36:48;;;;;;;15.65;11.48;;;;;;;3.56;87.08;102851.25;5060372;28;20055;-81
2022/01/24 08:39:15;;;;;;;14.88;11.05;;;;;;;3.56;85.90;102851.25;5061729;28;20060;-82
2022/01/24 08:41:57;;;;;;;16.42;10.52;;;;;;;3.38;85.37;102856.25;5060019;28;20056;-81
2022/01/24 08:45:41;;;;;;;18.45;10.43;;;;;;;2.96;86.82;102868.06;5060360;28;20093;-81
2022/01/24 08:47:19;;;;;;;14.48;10.45;;;;;;;2.94;86.84;102859.53;5058840;28;20099;-81
2022/01/24 08:49:45;;;;;;;15.35;10.63;;;;;;;2.89;87.63;102865.75;5058865;28;20072;-83
2022/01/24 08:52:12;;;;;;;19.27;11.30;;;;;;;2.89;87.62;102860.56;5058809;28;20268;-80
2022/01/24 08:54:38;;;;;;;13.98;11.68;;;;;;;2.84;87.73;102870.22;5057918;28;20082;-80
2022/01/24 08:57:07;;;;;;;14.38;11.65;;;;;;;2.83;88.45;102868.56;5058170;28;20049;-80
2022/01/24 08:59:34;;;;;;;15.57;11.15;;;;;;;2.77;88.89;102876.53;5058849;28;20083;-81
2022/01/24 09:02:02;;;;;;;15.73;10.40;;;;;;;2.80;88.61;102879.00;5057855;28;20109;-81
2022/01/24 09:04:32;;;;;;;13.20;11.13;;;;;;;2.75;88.74;102870.56;5060034;28;20056;-79
2022/01/24 09:07:04;;;;;;;17.13;11.00;;;;;;;2.77;89.01;102879.94;5059673;28;20060;-81
2022/01/24 09:09:31;;;;;;;13.38;11.27;;;;;;;2.85;89.36;102877.09;5060962;28;20056;-80
2022/01/24 09:11:58;;;;;;;17.73;11.88;;;;;;;2.92;88.52;102857.88;5060853;28;20049;-80
2022/01/24 09:14:35;;;;;;;15.45;11.85;;;;;;;3.00;88.70;102863.63;5062164;28;20060;-83
2022/01/24 09:17:02;;;;;;;14.52;11.73;;;;;;;3.06;87.85;102868.59;5062206;28;20045;-81
2022/01/24 09:19:34;;;;;;;14.52;11.38;;;;;;;2.99;88.18;102820.56;5062707;28;20057;-81
2022/01/24 09:22:09;;;;;;;14.18;11.32;;;;;;;3.05;87.91;102828.13;5063405;28;20132;-80
2022/01/24 09:24:40;;;;;;;19.15;11.82;;;;;;;3.30;88.38;102856.56;5063177;28;20076;-82
2022/01/24 09:27:09;;;;;;;15.07;11.38;;;;;;;3.41;87.45;102858.75;5062557;28;20045;-84
2022/01/24 09:29:39;;;;;;;12.80;11.43;;;;;;;3.55;87.55;102853.91;5062464;28;20049;-81
2022/01/24 09:32:09;;;;;;;16.10;12.02;;;;;;;3.40;86.74;102839.78;5062910;28;20055;-82
2022/01/24 09:34:43;;;;;;;15.13;11.82;;;;;;;3.67;86.44;102858.66;5061996;28;20337;-82
2022/01/24 09:37:13;;;;;;;16.00;12.70;;;;;;;3.72;85.96;102856.72;5059273;28;20052;-80
2022/01/24 09:39:43;;;;;;;12.20;10.90;;;;;;;3.84;84.94;102863.16;5059313;28;20117;-81
2022/01/24 09:42:10;;;;;;;14.80;11.15;;;;;;;3.82;84.93;102849.44;5061563;28;20092;-80
2022/01/24 09:44:38;;;;;;;14.75;11.00;;;;;;;3.87;84.63;102852.69;5060469;28;20497;-81
2022/01/24 09:47:05;;;;;;;14.77;10.63;;;;;;;3.97;83.79;102841.06;5061213;28;20041;-80
2022/01/24 09:49:32;;;;;;;11.85;10.63;;;;;;;3.98;83.91;102835.00;5060897;28;20053;-80
2022/01/24 09:51:58;;;;;;;12.25;10.23;;;;;;;4.08;84.39;102862.25;5060555;28;20080;-80
2022/01/24 09:54:25;;;;;;;13.20;11.10;;;;;;;4.18;84.15;102852.38;5059281;28;20103;-81
2022/01/24 09:56:52;;;;;;;17.90;14.93;;;;;;;4.13;83.48;102844.78;5059311;28;20105;-79
2022/01/24 09:59:18;;;;;;;13.93;12.43;;;;;;;4.17;82.90;102861.88;5058841;28;20102;-80
2022/01/24 10:01:46;;;;;;;11.90;10.18;;;;;;;4.13;83.74;102865.50;5060444;28;20132;-80
2022/01/24 10:04:17;;;;;;;16.55;10.23;;;;;;;4.15;82.96;102862.84;5060589;28;20121;-79
2022/01/24 10:07:01;;;;;;;12.73;10.90;;;;;;;4.23;82.69;102861.66;5058230;28;20075;-79
2022/01/24 10:09:29;;;;;;;12.85;10.65;;;;;;;4.33;82.75;102868.13;5058030;28;20132;-79
2022/01/24 10:12:23;;;;;;;12.70;10.13;;;;;;;4.40;81.69;102868.72;5058557;28;20072;-79
2022/01/24 10:17:40;;;;;;;11.60;9.60;;;;;;;4.38;81.85;102864.50;5064394;28;20060;-80
2022/01/24 10:20:23;;;;;;;11.85;10.18;;;;;;;4.40;82.14;102865.28;5063823;28;20550;-82
2022/01/24 10:23:12;;;;;;;11.50;9.45;;;;;;;4.45;81.74;102853.00;5066384;28;20056;-81
2022/01/24 10:25:49;;;;;;;12.32;9.10;;;;;;;4.41;81.18;102861.78;5062144;28;20079;-82
2022/01/24 10:28:27;;;;;;;13.45;10.40;;;;;;;4.47;81.58;102856.38;5065282;28;20060;-81
2022/01/24 10:31:12;;;;;;;11.68;9.48;;;;;;;4.56;80.53;102863.78;5065149;28;20055;-80
2022/01/24 10:33:59;;;;;;;11.93;8.85;;;;;;;4.55;80.58;102859.50;5064374;28;20495;-80
2022/01/24 10:36:28;;;;;;;10.52;9.43;;;;;;;4.78;80.36;102855.94;5063068;28;20496;-80
2022/01/24 10:39:28;;;;;;;13.00;10.32;;;;;;;4.57;80.24;102860.28;5064272;28;20049;-80
2022/01/24 10:45:00;;;;;;;11.98;9.75;;;;;;;4.37;80.48;102848.09;5066220;28;20059;-80
2022/01/24 10:47:30;;;;;;;9.75;7.88;;;;;;;4.29;80.14;102842.38;5063190;28;20087;-80
2022/01/24 10:49:59;;;;;;;9.70;8.68;;;;;;;4.29;81.46;102844.97;5064125;28;20049;-80
2022/01/24 10:52:28;;;;;;;15.95;11.60;;;;;;;4.18;81.04;102847.19;5065850;28;20045;-77
2022/01/24 10:55:11;;;;;;;11.02;8.82;;;;;;;4.13;81.18;102847.34;5066164;28;20576;-81
2022/01/24 10:57:40;;;;;;;12.00;10.40;;;;;;;4.13;81.82;102852.53;5065717;28;20107;-82
2022/01/24 11:00:09;;;;;;;14.75;11.23;;;;;;;4.27;81.52;102842.44;5065419;28;20053;-81
2022/01/24 11:02:40;;;;;;;10.73;9.25;;;;;;;4.17;81.21;102835.97;5066268;28;20052;-80
2022/01/24 11:05:16;;;;;;;10.75;8.90;;;;;;;4.21;81.25;102842.72;5065305;28;20080;-82
2022/01/24 11:07:55;;;;;;;11.27;9.60;;;;;;;4.18;81.37;102837.66;5065230;28;20081;-82
2022/01/24 11:10:23;;;;;;;13.07;10.30;;;;;;;4.24;80.77;102832.22;5061079;28;20060;-80
2022/01/24 11:13:25;;;;;;;11.93;9.35;;;;;;;4.18;81.10;102834.22;5061556;28;20075;-86
2022/01/24 11:15:57;;;;;;;10.20;9.10;;;;;;;4.12;81.36;102826.69;5058975;28;20037;-83
2022/01/24 11:18:27;;;;;;;10.20;8.95;;;;;;;4.25;80.88;102839.06;5063960;28;20427;-82
2022/01/24 11:21:02;;;;;;;10.60;9.38;;;;;;;4.00;81.21;102802.94;5061989;28;20049;-82
2022/01/24 11:23:29;;;;;;;11.07;9.32;;;;;;;4.11;81.90;102802.53;5063534;28;20048;-83
2022/01/24 11:25:57;;;;;;;11.60;10.40;;;;;;;4.18;81.57;102806.56;5064964;28;20059;-81
2022/01/24 11:28:25;;;;;;;16.10;11.38;;;;;;;4.19;81.68;102797.88;5057714;28;20447;-79
2022/01/24 11:31:00;;;;;;;16.05;10.13;;;;;;;4.25;81.17;102820.94;5056241;28;20076;-80
2022/01/24 11:33:36;;;;;;;13.60;10.63;;;;;;;4.43;81.54;102821.09;5057587;28;20053;-80
2022/01/24 11:36:06;;;;;;;12.27;10.73;;;;;;;4.58;80.65;102812.69;5060937;28;20124;-80
2022/01/24 11:38:35;;;;;;;14.73;10.75;;;;;;;4.78;81.14;102810.09;5062041;28;20045;-80
2022/01/24 11:41:05;;;;;;;15.10;10.52;;;;;;;4.73;79.62;102816.38;5062167;28;20118;-80
2022/01/24 11:43:35;;;;;;;12.57;10.05;;;;;;;4.88;80.64;102805.34;5061668;28;20076;-80
2022/01/24 11:46:07;;;;;;;14.25;10.55;;;;;;;5.02;80.42;102820.31;5062974;28;20415;-80
2022/01/24 11:48:36;;;;;;;14.27;10.38;;;;;;;4.77;80.71;102808.41;5064791;28;20052;-81
2022/01/24 11:51:12;;;;;;;13.45;10.05;;;;;;;4.58;80.90;102813.53;5061771;28;20091;-79
2022/01/24 11:53:42;;;;;;;15.57;11.13;;;;;;;4.66;81.91;102808.88;5063214;28;20053;-80
2022/01/24 11:56:27;;;;;;;12.20;10.90;;;;;;;4.59;81.93;102802.25;5064690;28;20045;-80
2022/01/24 11:59:19;;;;;;;15.20;10.75;;;;;;;4.60;81.53;102798.75;5066671;28;20070;-82
2022/01/24 12:01:51;;;;;;;15.93;11.80;;;;;;;4.64;81.39;102791.69;5066079;28;20045;-80
2022/01/24 12:04:50;;;;;;;13.15;11.50;;;;;;;4.81;81.77;102796.13;5067466;28;20056;-84
2022/01/24 12:07:20;;;;;;;15.07;12.38;;;;;;;5.06;80.62;102795.94;5065919;28;20088;-84
2022/01/24 12:09:46;;;;;;;13.07;11.60;;;;;;;4.84;81.54;102790.81;5065140;28;20132;-81
2022/01/24 12:12:44;;;;;;;16.70;12.43;;;;;;;5.11;82.01;102800.00;5065450;28;20102;-82
2022/01/24 12:15:36;;;;;;;13.98;11.43;;;;;;;5.19;80.78;102794.47;5064443;28;20049;-81
2022/01/24 12:18:05;;;;;;;14.55;11.25;;;;;;;4.93;81.45;102786.09;5058503;28;20478;-83
2022/01/24 12:20:46;;;;;;;13.40;11.82;;;;;;;4.82;80.83;102793.47;5058669;28;20067;-81
2022/01/24 12:23:40;;;;;;;12.18;10.88;;;;;;;4.74;81.39;102785.19;5058956;28;20143;-82
2022/01/24 12:26:09;;;;;;;13.52;10.40;;;;;;;5.08;81.30;102783.72;5057039;28;20048;-81
2022/01/24 12:28:48;;;;;;;19.33;13.65;;;;;;;5.27;80.30;102784.56;5057694;28;20140;-82
2022/01/24 12:31:21;;;;;;;13.52;9.02;;;;;;;4.88;80.66;102788.03;5058489;28;20087;-82
2022/01/24 12:34:20;;;;;;;11.13;7.63;;;;;;;4.76;81.18;102788.56;5056973;28;20076;-81
2022/01/24 12:37:08;;;;;;;10.93;8.10;;;;;;;4.66;81.50;102782.09;5052871;28;20076;-81
2022/01/24 12:39:48;;;;;;;12.40;8.23;;;;;;;4.63;82.04;102787.41;5056537;28;20056;-81
2022/01/24 12:42:27;;;;;;;10.65;8.80;;;;;;;4.75;82.12;102781.69;5055804;28;20048;-81
2022/01/24 12:47:38;;;;;;;9.00;8.07;;;;;;;4.55;82.00;102781.72;5056842;28;20157;-81
2022/01/24 12:50:10;;;;;;;14.35;8.43;;;;;;;4.70;82.99;102780.22;5057389;28;20079;-84
2022/01/24 12:52:39;;;;;;;13.13;9.38;;;;;;;4.71;82.32;102782.75;5054573;28;20502;-81
2022/01/24 12:55:11;;;;;;;12.98;8.95;;;;;;;4.58;82.10;102753.06;5058892;28;20044;-80
2022/01/24 12:57:44;;;;;;;11.20;9.80;;;;;;;4.73;82.40;102773.13;5057199;28;20486;-83
2022/01/24 13:00:20;;;;;;;14.05;11.32;;;;;;;5.05;81.56;102769.13;5058232;28;20067;-82
2022/01/24 13:02:47;;;;;;;12.50;10.80;;;;;;;4.98;80.32;102746.97;5055040;28;20049;-79
2022/01/24 13:05:16;;;;;;;13.77;10.35;;;;;;;5.03;79.43;102758.00;5054529;28;20143;-82
2022/01/24 13:07:52;;;;;;;13.93;10.43;;;;;;;5.22;79.19;102770.97;5054032;28;20052;-82
2022/01/24 13:10:23;;;;;;;14.10;10.27;;;;;;;5.12;79.84;102762.78;5054681;28;20052;-79
2022/01/24 13:13:03;;;;;;;11.65;10.43;;;;;;;5.12;79.77;102764.53;5053583;28;20115;-79
2022/01/24 13:21:16;;;;;;;12.57;11.35;;;;;;;4.72;81.24;102760.25;5055068;28;20530;-80
2022/01/24 13:23:50;;;;;;;16.35;12.07;;;;;;;4.55;81.46;102728.09;5053905;28;20052;-80
2022/01/24 13:26:18;;;;;;;12.35;11.05;;;;;;;4.65;80.95;102733.75;5053363;28;20049;-83
2022/01/24 13:28:45;;;;;;;13.82;11.07;;;;;;;4.70;81.20;102762.91;5053290;28;20165;-80
2022/01/24 13:31:15;;;;;;;15.80;10.18;;;;;;;4.46;81.00;102725.91;5054395;28;20099;-79
2022/01/24 13:33:46;;;;;;;12.98;10.10;;;;;;;4.65;80.77;102744.13;5055368;28;20048;-79
2022/01/24 13:36:16;;;;;;;19.27;13.40;;;;;;;4.78;80.63;102765.16;5056744;28;20064;-81
2022/01/24 13:38:45;;;;;;;12.05;10.48;;;;;;;4.76;81.63;102757.44;5055528;28;20049;-81
2022/01/24 13:41:14;;;;;;;15.32;10.77;;;;;;;4.64;81.96;102750.22;5055789;28;20041;-81
2022/01/24 13:44:02;;;;;;;15.00;10.45;;;;;;;4.81;82.49;102760.66;5056392;28;20510;-83
2022/01/24 13:46:33;;;;;;;19.65;12.60;;;;;;;4.98;82.28;102772.91;5051540;28;20073;-81
2022/01/24 13:49:04;;;;;;;13.88;11.70;;;;;;;4.71;81.75;102737.81;5054714;28;20053;-81
2022/01/24 13:51:41;;;;;;;13.50;12.20;;;;;;;4.68;82.30;102748.31;5055711;28;20057;-81
2022/01/24 13:54:11;;;;;;;16.10;12.50;;;;;;;4.52;81.05;102720.47;5056620;28;20053;-81